sensor_id;sensor_type;location;lat;lon;timestamp;temperature;humidity
65692;DHT22;52411;52.716;6.696;2023-07-28T00:00:07;18.20;99.90
65692;DHT22;52411;52.716;6.696;2023-07-28T00:02:33;18.30;99.90
65692;DHT22;52411;52.716;6.696;2023-07-28T00:04:59;18.30;99.90
65692;DHT22;52411;52.716;6.696;2023-07-28T00:07:24;18.20;99.90
65692;DHT22;52411;52.716;6.696;2023-07-28T00:09:50;18.20;99.90
65692;DHT22;52411;52.716;6.696;2023-07-28T00:12:16;18.20;99.90
65692;DHT22;52411;52.716;6.696;2023-07-28T00:14:41;18.20;99.90
65692;DHT22;52411;52.716;6.696;2023-07-28T00:17:07;18.20;99.90
65692;DHT22;52411;52.716;6.696;2023-07-28T00:19:32;18.30;99.90
65692;DHT22;52411;52.716;6.696;2023-07-28T00:21:58;18.20;99.90
65692;DHT22;52411;52.716;6.696;2023-07-28T00:24:24;18.30;99.90
65692;DHT22;52411;52.716;6.696;2023-07-28T00:26:49;18.30;99.90
65692;DHT22;52411;52.716;6.696;2023-07-28T00:29:15;18.20;99.90
65692;DHT22;52411;52.716;6.696;2023-07-28T00:31:41;18.30;99.90
65692;DHT22;52411;52.716;6.696;2023-07-28T00:34:06;18.20;99.90
65692;DHT22;52411;52.716;6.696;2023-07-28T00:36:32;18.20;99.90
65692;DHT22;52411;52.716;6.696;2023-07-28T00:38:58;18.30;99.90
65692;DHT22;52411;52.716;6.696;2023-07-28T00:41:23;18.30;99.90
65692;DHT22;52411;52.716;6.696;2023-07-28T00:43:49;18.20;99.90
65692;DHT22;52411;52.716;6.696;2023-07-28T00:46:15;18.20;99.90
65692;DHT22;52411;52.716;6.696;2023-07-28T00:48:41;18.30;99.90
65692;DHT22;52411;52.716;6.696;2023-07-28T00:51:09;18.20;99.90
65692;DHT22;52411;52.716;6.696;2023-07-28T00:53:35;18.30;99.90
65692;DHT22;52411;52.716;6.696;2023-07-28T00:56:01;18.30;99.90
65692;DHT22;52411;52.716;6.696;2023-07-28T00:58:27;18.30;99.90
65692;DHT22;52411;52.716;6.696;2023-07-28T01:00:53;18.30;99.90
65692;DHT22;52411;52.716;6.696;2023-07-28T01:03:20;18.30;99.90
65692;DHT22;52411;52.716;6.696;2023-07-28T01:08:34;18.20;99.90
65692;DHT22;52411;52.716;6.696;2023-07-28T01:11:01;18.30;99.90
65692;DHT22;52411;52.716;6.696;2023-07-28T01:13:26;18.30;99.90
65692;DHT22;52411;52.716;6.696;2023-07-28T01:15:53;18.30;99.90
65692;DHT22;52411;52.716;6.696;2023-07-28T01:18:18;18.30;99.90
65692;DHT22;52411;52.716;6.696;2023-07-28T01:20:45;18.30;99.90
65692;DHT22;52411;52.716;6.696;2023-07-28T01:23:20;18.20;99.90
65692;DHT22;52411;52.716;6.696;2023-07-28T01:25:53;18.30;99.90
65692;DHT22;52411;52.716;6.696;2023-07-28T01:28:21;18.20;99.90
65692;DHT22;52411;52.716;6.696;2023-07-28T01:30:47;18.30;99.90
65692;DHT22;52411;52.716;6.696;2023-07-28T01:33:13;18.30;99.90
65692;DHT22;52411;52.716;6.696;2023-07-28T01:35:39;18.20;99.90
65692;DHT22;52411;52.716;6.696;2023-07-28T01:38:04;18.20;99.90
65692;DHT22;52411;52.716;6.696;2023-07-28T01:40:30;18.20;99.90
65692;DHT22;52411;52.716;6.696;2023-07-28T01:42:56;18.20;99.90
65692;DHT22;52411;52.716;6.696;2023-07-28T01:45:21;18.30;99.90
65692;DHT22;52411;52.716;6.696;2023-07-28T01:47:47;18.30;99.90
65692;DHT22;52411;52.716;6.696;2023-07-28T01:50:13;18.20;99.90
65692;DHT22;52411;52.716;6.696;2023-07-28T01:52:38;18.30;99.90
65692;DHT22;52411;52.716;6.696;2023-07-28T01:55:04;18.30;99.90
65692;DHT22;52411;52.716;6.696;2023-07-28T01:57:39;18.20;99.90
65692;DHT22;52411;52.716;6.696;2023-07-28T02:00:05;18.30;99.90
65692;DHT22;52411;52.716;6.696;2023-07-28T02:02:31;18.20;99.90
65692;DHT22;52411;52.716;6.696;2023-07-28T02:04:56;18.30;99.90
65692;DHT22;52411;52.716;6.696;2023-07-28T02:07:22;18.30;99.90
65692;DHT22;52411;52.716;6.696;2023-07-28T02:09:48;18.20;99.90
65692;DHT22;52411;52.716;6.696;2023-07-28T02:12:13;18.30;99.90
65692;DHT22;52411;52.716;6.696;2023-07-28T02:14:39;18.20;99.90
65692;DHT22;52411;52.716;6.696;2023-07-28T02:17:04;18.30;99.90
65692;DHT22;52411;52.716;6.696;2023-07-28T02:19:30;18.30;99.90
65692;DHT22;52411;52.716;6.696;2023-07-28T02:21:56;18.30;99.90
65692;DHT22;52411;52.716;6.696;2023-07-28T02:24:22;18.30;99.90
65692;DHT22;52411;52.716;6.696;2023-07-28T02:26:47;18.20;99.90
65692;DHT22;52411;52.716;6.696;2023-07-28T02:29:13;18.20;99.90
65692;DHT22;52411;52.716;6.696;2023-07-28T02:31:38;18.20;99.90
65692;DHT22;52411;52.716;6.696;2023-07-28T02:34:04;18.30;99.90
65692;DHT22;52411;52.716;6.696;2023-07-28T02:36:30;18.20;99.90
65692;DHT22;52411;52.716;6.696;2023-07-28T02:38:56;18.30;99.90
65692;DHT22;52411;52.716;6.696;2023-07-28T02:41:22;18.20;99.90
65692;DHT22;52411;52.716;6.696;2023-07-28T02:43:47;18.30;99.90
65692;DHT22;52411;52.716;6.696;2023-07-28T02:46:13;18.20;99.90
65692;DHT22;52411;52.716;6.696;2023-07-28T02:48:38;18.30;99.90
65692;DHT22;52411;52.716;6.696;2023-07-28T02:51:04;18.30;99.90
65692;DHT22;52411;52.716;6.696;2023-07-28T02:53:30;18.30;99.90
65692;DHT22;52411;52.716;6.696;2023-07-28T02:55:56;18.30;99.90
65692;DHT22;52411;52.716;6.696;2023-07-28T02:58:22;18.20;99.90
65692;DHT22;52411;52.716;6.696;2023-07-28T03:00:51;18.30;99.90
65692;DHT22;52411;52.716;6.696;2023-07-28T03:03:16;18.30;99.90
65692;DHT22;52411;52.716;6.696;2023-07-28T03:05:42;18.30;99.90
65692;DHT22;52411;52.716;6.696;2023-07-28T03:08:07;18.30;99.90
65692;DHT22;52411;52.716;6.696;2023-07-28T03:10:33;18.30;99.90
65692;DHT22;52411;52.716;6.696;2023-07-28T03:12:59;18.30;99.90
65692;DHT22;52411;52.716;6.696;2023-07-28T03:15:24;18.30;99.90
65692;DHT22;52411;52.716;6.696;2023-07-28T03:17:50;18.30;99.90
65692;DHT22;52411;52.716;6.696;2023-07-28T03:20:16;18.30;99.90
65692;DHT22;52411;52.716;6.696;2023-07-28T03:22:42;18.30;99.90
65692;DHT22;52411;52.716;6.696;2023-07-28T03:25:09;18.30;99.90
65692;DHT22;52411;52.716;6.696;2023-07-28T03:27:34;18.30;99.90
65692;DHT22;52411;52.716;6.696;2023-07-28T03:30:00;18.30;99.90
65692;DHT22;52411;52.716;6.696;2023-07-28T03:32:26;18.30;99.90
65692;DHT22;52411;52.716;6.696;2023-07-28T03:34:52;18.30;99.90
65692;DHT22;52411;52.716;6.696;2023-07-28T03:37:18;18.30;99.90
65692;DHT22;52411;52.716;6.696;2023-07-28T03:39:44;18.30;99.90
65692;DHT22;52411;52.716;6.696;2023-07-28T03:42:10;18.20;99.90
65692;DHT22;52411;52.716;6.696;2023-07-28T03:44:35;18.30;99.90
65692;DHT22;52411;52.716;6.696;2023-07-28T03:47:03;18.30;99.90
65692;DHT22;52411;52.716;6.696;2023-07-28T03:49:29;18.30;99.90
65692;DHT22;52411;52.716;6.696;2023-07-28T03:51:55;18.30;99.90
65692;DHT22;52411;52.716;6.696;2023-07-28T03:54:20;18.30;99.90
65692;DHT22;52411;52.716;6.696;2023-07-28T03:56:46;18.30;99.90
65692;DHT22;52411;52.716;6.696;2023-07-28T03:59:11;18.30;99.90
65692;DHT22;52411;52.716;6.696;2023-07-28T04:01:37;18.30;99.90
65692;DHT22;52411;52.716;6.696;2023-07-28T04:04:03;18.30;99.90
65692;DHT22;52411;52.716;6.696;2023-07-28T04:06:43;18.30;99.90
65692;DHT22;52411;52.716;6.696;2023-07-28T04:09:10;18.30;99.90
65692;DHT22;52411;52.716;6.696;2023-07-28T04:11:37;18.30;99.90
65692;DHT22;52411;52.716;6.696;2023-07-28T04:14:03;18.30;99.90
65692;DHT22;52411;52.716;6.696;2023-07-28T04:16:29;18.30;99.90
65692;DHT22;52411;52.716;6.696;2023-07-28T04:18:55;18.30;99.90
65692;DHT22;52411;52.716;6.696;2023-07-28T04:21:21;18.40;99.90
65692;DHT22;52411;52.716;6.696;2023-07-28T04:23:46;18.40;99.90
65692;DHT22;52411;52.716;6.696;2023-07-28T04:26:12;18.40;99.90
65692;DHT22;52411;52.716;6.696;2023-07-28T04:28:37;18.40;99.90
65692;DHT22;52411;52.716;6.696;2023-07-28T04:31:03;18.40;99.90
65692;DHT22;52411;52.716;6.696;2023-07-28T04:33:29;18.40;99.90
65692;DHT22;52411;52.716;6.696;2023-07-28T04:35:54;18.40;99.90
65692;DHT22;52411;52.716;6.696;2023-07-28T04:38:20;18.40;99.90
65692;DHT22;52411;52.716;6.696;2023-07-28T04:40:45;18.40;99.90
65692;DHT22;52411;52.716;6.696;2023-07-28T04:43:11;18.40;99.90
65692;DHT22;52411;52.716;6.696;2023-07-28T04:45:37;18.40;99.90
65692;DHT22;52411;52.716;6.696;2023-07-28T04:48:02;18.40;99.90
65692;DHT22;52411;52.716;6.696;2023-07-28T04:50:28;18.40;99.90
65692;DHT22;52411;52.716;6.696;2023-07-28T04:52:54;18.40;99.90
65692;DHT22;52411;52.716;6.696;2023-07-28T04:55:20;18.40;99.90
65692;DHT22;52411;52.716;6.696;2023-07-28T04:57:46;18.40;99.90
65692;DHT22;52411;52.716;6.696;2023-07-28T05:00:12;18.40;99.90
65692;DHT22;52411;52.716;6.696;2023-07-28T05:02:38;18.50;99.90
65692;DHT22;52411;52.716;6.696;2023-07-28T05:05:04;18.40;99.90
65692;DHT22;52411;52.716;6.696;2023-07-28T05:07:30;18.40;99.90
65692;DHT22;52411;52.716;6.696;2023-07-28T05:09:55;18.40;99.90
65692;DHT22;52411;52.716;6.696;2023-07-28T05:12:21;18.40;99.90
65692;DHT22;52411;52.716;6.696;2023-07-28T05:14:46;18.50;99.90
65692;DHT22;52411;52.716;6.696;2023-07-28T05:17:12;18.50;99.90
65692;DHT22;52411;52.716;6.696;2023-07-28T05:19:38;18.50;99.90
65692;DHT22;52411;52.716;6.696;2023-07-28T05:22:04;18.50;99.90
65692;DHT22;52411;52.716;6.696;2023-07-28T05:24:32;18.50;99.90
65692;DHT22;52411;52.716;6.696;2023-07-28T05:26:58;18.50;99.90
65692;DHT22;52411;52.716;6.696;2023-07-28T05:29:23;18.50;99.90
65692;DHT22;52411;52.716;6.696;2023-07-28T05:31:49;18.50;99.90
65692;DHT22;52411;52.716;6.696;2023-07-28T05:34:15;18.50;99.90
65692;DHT22;52411;52.716;6.696;2023-07-28T05:36:40;18.50;99.90
65692;DHT22;52411;52.716;6.696;2023-07-28T05:39:06;18.50;99.90
65692;DHT22;52411;52.716;6.696;2023-07-28T05:41:32;18.60;99.90
65692;DHT22;52411;52.716;6.696;2023-07-28T05:43:57;18.60;99.90
65692;DHT22;52411;52.716;6.696;2023-07-28T05:46:23;18.60;99.90
65692;DHT22;52411;52.716;6.696;2023-07-28T05:48:49;18.60;99.90
65692;DHT22;52411;52.716;6.696;2023-07-28T05:51:14;18.60;99.90
65692;DHT22;52411;52.716;6.696;2023-07-28T05:53:40;18.60;99.90
65692;DHT22;52411;52.716;6.696;2023-07-28T05:56:06;18.70;99.90
65692;DHT22;52411;52.716;6.696;2023-07-28T05:58:32;18.70;99.90
65692;DHT22;52411;52.716;6.696;2023-07-28T06:00:57;18.80;99.90
65692;DHT22;52411;52.716;6.696;2023-07-28T06:03:23;18.80;99.90
65692;DHT22;52411;52.716;6.696;2023-07-28T06:05:49;18.80;99.90
65692;DHT22;52411;52.716;6.696;2023-07-28T06:08:14;18.90;99.90
65692;DHT22;52411;52.716;6.696;2023-07-28T06:10:40;18.90;99.90
65692;DHT22;52411;52.716;6.696;2023-07-28T06:13:05;18.90;99.90
65692;DHT22;52411;52.716;6.696;2023-07-28T06:15:31;18.90;99.90
65692;DHT22;52411;52.716;6.696;2023-07-28T06:18:00;18.90;99.90
65692;DHT22;52411;52.716;6.696;2023-07-28T06:20:26;18.90;99.90
65692;DHT22;52411;52.716;6.696;2023-07-28T06:22:51;18.90;99.90
65692;DHT22;52411;52.716;6.696;2023-07-28T06:25:17;18.90;99.90
65692;DHT22;52411;52.716;6.696;2023-07-28T06:27:43;19.00;99.90
65692;DHT22;52411;52.716;6.696;2023-07-28T06:30:09;19.10;99.90
65692;DHT22;52411;52.716;6.696;2023-07-28T06:32:34;19.10;99.90
65692;DHT22;52411;52.716;6.696;2023-07-28T06:35:00;19.20;99.90
65692;DHT22;52411;52.716;6.696;2023-07-28T06:37:25;19.20;99.90
65692;DHT22;52411;52.716;6.696;2023-07-28T06:39:51;19.30;99.90
65692;DHT22;52411;52.716;6.696;2023-07-28T06:42:16;19.30;99.90
65692;DHT22;52411;52.716;6.696;2023-07-28T06:44:49;19.50;99.90
65692;DHT22;52411;52.716;6.696;2023-07-28T06:47:15;19.50;99.90
65692;DHT22;52411;52.716;6.696;2023-07-28T06:49:41;19.60;99.90
65692;DHT22;52411;52.716;6.696;2023-07-28T06:52:06;19.70;99.90
65692;DHT22;52411;52.716;6.696;2023-07-28T06:54:32;19.80;99.90
65692;DHT22;52411;52.716;6.696;2023-07-28T06:56:58;19.90;99.90
65692;DHT22;52411;52.716;6.696;2023-07-28T06:59:23;20.00;99.90
65692;DHT22;52411;52.716;6.696;2023-07-28T07:01:49;20.10;99.90
65692;DHT22;52411;52.716;6.696;2023-07-28T07:04:15;20.20;99.90
65692;DHT22;52411;52.716;6.696;2023-07-28T07:06:40;20.30;99.90
65692;DHT22;52411;52.716;6.696;2023-07-28T07:09:06;20.30;99.90
65692;DHT22;52411;52.716;6.696;2023-07-28T07:11:32;20.40;99.90
65692;DHT22;52411;52.716;6.696;2023-07-28T07:13:57;20.40;99.90
65692;DHT22;52411;52.716;6.696;2023-07-28T07:16:23;20.40;99.90
65692;DHT22;52411;52.716;6.696;2023-07-28T07:18:51;20.30;99.90
65692;DHT22;52411;52.716;6.696;2023-07-28T07:21:16;20.30;99.90
65692;DHT22;52411;52.716;6.696;2023-07-28T07:23:42;20.40;99.90
65692;DHT22;52411;52.716;6.696;2023-07-28T07:26:08;20.50;99.90
65692;DHT22;52411;52.716;6.696;2023-07-28T07:28:33;20.60;99.90
65692;DHT22;52411;52.716;6.696;2023-07-28T07:31:01;20.70;99.90
65692;DHT22;52411;52.716;6.696;2023-07-28T07:33:26;20.80;99.90
65692;DHT22;52411;52.716;6.696;2023-07-28T07:35:53;20.80;99.90
65692;DHT22;52411;52.716;6.696;2023-07-28T07:38:19;20.80;99.90
65692;DHT22;52411;52.716;6.696;2023-07-28T07:40:47;20.80;99.90
65692;DHT22;52411;52.716;6.696;2023-07-28T07:43:13;20.70;99.90
65692;DHT22;52411;52.716;6.696;2023-07-28T07:45:45;20.70;99.90
65692;DHT22;52411;52.716;6.696;2023-07-28T07:48:12;20.70;99.90
65692;DHT22;52411;52.716;6.696;2023-07-28T07:50:38;20.70;99.90
65692;DHT22;52411;52.716;6.696;2023-07-28T07:53:04;20.70;99.90
65692;DHT22;52411;52.716;6.696;2023-07-28T07:55:30;20.80;99.90
65692;DHT22;52411;52.716;6.696;2023-07-28T07:57:57;20.80;99.90
65692;DHT22;52411;52.716;6.696;2023-07-28T08:00:23;20.80;99.90
65692;DHT22;52411;52.716;6.696;2023-07-28T08:02:49;20.90;99.90
65692;DHT22;52411;52.716;6.696;2023-07-28T08:05:15;20.90;99.90
65692;DHT22;52411;52.716;6.696;2023-07-28T08:07:41;21.00;99.90
65692;DHT22;52411;52.716;6.696;2023-07-28T08:10:08;21.10;99.90
65692;DHT22;52411;52.716;6.696;2023-07-28T08:12:34;21.20;99.90
65692;DHT22;52411;52.716;6.696;2023-07-28T08:15:00;21.20;99.90
65692;DHT22;52411;52.716;6.696;2023-07-28T08:17:25;21.20;99.90
65692;DHT22;52411;52.716;6.696;2023-07-28T08:19:51;21.20;99.90
65692;DHT22;52411;52.716;6.696;2023-07-28T08:22:16;21.00;99.90
65692;DHT22;52411;52.716;6.696;2023-07-28T08:24:42;21.00;99.90
65692;DHT22;52411;52.716;6.696;2023-07-28T08:27:08;21.30;99.90
65692;DHT22;52411;52.716;6.696;2023-07-28T08:29:33;21.50;99.90
65692;DHT22;52411;52.716;6.696;2023-07-28T08:31:59;21.60;99.90
65692;DHT22;52411;52.716;6.696;2023-07-28T08:34:25;21.70;99.90
65692;DHT22;52411;52.716;6.696;2023-07-28T08:36:51;21.60;99.90
65692;DHT22;52411;52.716;6.696;2023-07-28T08:39:18;21.60;99.90
65692;DHT22;52411;52.716;6.696;2023-07-28T08:41:43;21.40;99.90
65692;DHT22;52411;52.716;6.696;2023-07-28T08:44:09;21.30;99.90
65692;DHT22;52411;52.716;6.696;2023-07-28T08:46:35;21.50;99.90
65692;DHT22;52411;52.716;6.696;2023-07-28T08:49:01;21.70;99.90
65692;DHT22;52411;52.716;6.696;2023-07-28T08:51:27;21.70;99.90
65692;DHT22;52411;52.716;6.696;2023-07-28T08:53:53;21.90;99.90
65692;DHT22;52411;52.716;6.696;2023-07-28T08:56:20;21.80;99.90
65692;DHT22;52411;52.716;6.696;2023-07-28T08:58:46;21.70;99.90
65692;DHT22;52411;52.716;6.696;2023-07-28T09:01:12;21.70;99.90
65692;DHT22;52411;52.716;6.696;2023-07-28T09:03:41;21.60;99.90
65692;DHT22;52411;52.716;6.696;2023-07-28T09:06:07;21.60;99.90
65692;DHT22;52411;52.716;6.696;2023-07-28T09:08:36;21.80;99.90
65692;DHT22;52411;52.716;6.696;2023-07-28T09:11:03;22.00;99.90
65692;DHT22;52411;52.716;6.696;2023-07-28T09:13:36;21.90;99.90
65692;DHT22;52411;52.716;6.696;2023-07-28T09:16:03;21.80;99.90
65692;DHT22;52411;52.716;6.696;2023-07-28T09:18:29;21.70;99.90
65692;DHT22;52411;52.716;6.696;2023-07-28T09:20:55;21.70;99.90
65692;DHT22;52411;52.716;6.696;2023-07-28T09:23:28;21.80;99.90
65692;DHT22;52411;52.716;6.696;2023-07-28T09:25:59;21.90;99.90
65692;DHT22;52411;52.716;6.696;2023-07-28T09:28:39;22.10;99.90
65692;DHT22;52411;52.716;6.696;2023-07-28T09:31:05;22.10;99.90
65692;DHT22;52411;52.716;6.696;2023-07-28T09:33:32;22.20;99.90
65692;DHT22;52411;52.716;6.696;2023-07-28T09:36:07;22.20;99.90
65692;DHT22;52411;52.716;6.696;2023-07-28T09:38:39;22.30;99.90
65692;DHT22;52411;52.716;6.696;2023-07-28T09:41:07;22.60;99.90
65692;DHT22;52411;52.716;6.696;2023-07-28T09:43:39;22.90;99.90
65692;DHT22;52411;52.716;6.696;2023-07-28T09:46:07;22.70;99.90
65692;DHT22;52411;52.716;6.696;2023-07-28T09:48:33;22.90;99.90
65692;DHT22;52411;52.716;6.696;2023-07-28T09:51:28;22.90;99.90
65692;DHT22;52411;52.716;6.696;2023-07-28T09:53:58;22.80;99.90
65692;DHT22;52411;52.716;6.696;2023-07-28T09:56:29;22.90;99.90
65692;DHT22;52411;52.716;6.696;2023-07-28T09:58:59;23.00;99.90
65692;DHT22;52411;52.716;6.696;2023-07-28T10:01:26;22.90;99.90
65692;DHT22;52411;52.716;6.696;2023-07-28T10:03:53;22.70;99.90
65692;DHT22;52411;52.716;6.696;2023-07-28T10:06:20;22.80;99.90
65692;DHT22;52411;52.716;6.696;2023-07-28T10:08:48;23.00;99.90
65692;DHT22;52411;52.716;6.696;2023-07-28T10:11:15;23.20;99.90
65692;DHT22;52411;52.716;6.696;2023-07-28T10:13:45;23.10;99.90
65692;DHT22;52411;52.716;6.696;2023-07-28T10:16:12;23.10;99.90
65692;DHT22;52411;52.716;6.696;2023-07-28T10:18:40;23.10;99.90
65692;DHT22;52411;52.716;6.696;2023-07-28T10:21:16;22.90;99.90
65692;DHT22;52411;52.716;6.696;2023-07-28T10:23:44;22.60;99.90
65692;DHT22;52411;52.716;6.696;2023-07-28T10:26:09;22.30;99.90
65692;DHT22;52411;52.716;6.696;2023-07-28T10:28:36;22.20;99.90
65692;DHT22;52411;52.716;6.696;2023-07-28T10:31:10;22.40;99.90
65692;DHT22;52411;52.716;6.696;2023-07-28T10:33:46;22.50;99.90
65692;DHT22;52411;52.716;6.696;2023-07-28T10:39:00;22.20;99.90
65692;DHT22;52411;52.716;6.696;2023-07-28T10:41:26;22.30;99.90
65692;DHT22;52411;52.716;6.696;2023-07-28T10:43:51;22.50;99.90
65692;DHT22;52411;52.716;6.696;2023-07-28T10:46:20;22.70;99.90
65692;DHT22;52411;52.716;6.696;2023-07-28T10:48:48;23.00;99.90
65692;DHT22;52411;52.716;6.696;2023-07-28T10:53:50;23.60;99.90
65692;DHT22;52411;52.716;6.696;2023-07-28T10:56:16;23.60;99.90
65692;DHT22;52411;52.716;6.696;2023-07-28T10:58:41;23.60;99.90
65692;DHT22;52411;52.716;6.696;2023-07-28T11:01:07;23.40;99.90
65692;DHT22;52411;52.716;6.696;2023-07-28T11:03:33;23.30;99.90
65692;DHT22;52411;52.716;6.696;2023-07-28T11:05:58;23.40;99.90
65692;DHT22;52411;52.716;6.696;2023-07-28T11:08:25;23.40;99.90
65692;DHT22;52411;52.716;6.696;2023-07-28T11:10:50;23.30;99.90
65692;DHT22;52411;52.716;6.696;2023-07-28T11:13:16;23.60;99.90
65692;DHT22;52411;52.716;6.696;2023-07-28T11:15:42;23.50;99.90
65692;DHT22;52411;52.716;6.696;2023-07-28T11:18:08;23.30;99.90
65692;DHT22;52411;52.716;6.696;2023-07-28T11:20:35;23.10;99.90
65692;DHT22;52411;52.716;6.696;2023-07-28T11:23:04;22.90;99.90
65692;DHT22;52411;52.716;6.696;2023-07-28T11:25:32;22.60;99.90
65692;DHT22;52411;52.716;6.696;2023-07-28T11:28:00;22.20;99.90
65692;DHT22;52411;52.716;6.696;2023-07-28T11:30:26;22.00;99.90
65692;DHT22;52411;52.716;6.696;2023-07-28T11:32:52;22.10;99.90
65692;DHT22;52411;52.716;6.696;2023-07-28T11:35:20;22.30;99.90
65692;DHT22;52411;52.716;6.696;2023-07-28T11:37:47;22.50;99.90
65692;DHT22;52411;52.716;6.696;2023-07-28T11:40:15;22.50;99.90
65692;DHT22;52411;52.716;6.696;2023-07-28T11:42:45;22.30;99.90
65692;DHT22;52411;52.716;6.696;2023-07-28T11:45:12;22.40;99.90
65692;DHT22;52411;52.716;6.696;2023-07-28T11:47:38;22.40;99.90
65692;DHT22;52411;52.716;6.696;2023-07-28T11:50:04;22.40;99.90
65692;DHT22;52411;52.716;6.696;2023-07-28T11:52:31;22.40;99.90
65692;DHT22;52411;52.716;6.696;2023-07-28T11:55:02;22.60;99.90
65692;DHT22;52411;52.716;6.696;2023-07-28T11:57:29;22.80;99.90
65692;DHT22;52411;52.716;6.696;2023-07-28T11:59:59;22.80;99.90
65692;DHT22;52411;52.716;6.696;2023-07-28T12:02:29;22.70;99.90
65692;DHT22;52411;52.716;6.696;2023-07-28T12:04:55;22.80;99.90
65692;DHT22;52411;52.716;6.696;2023-07-28T12:07:31;23.10;99.90
65692;DHT22;52411;52.716;6.696;2023-07-28T12:09:57;23.40;99.90
65692;DHT22;52411;52.716;6.696;2023-07-28T12:12:27;23.40;99.90
65692;DHT22;52411;52.716;6.696;2023-07-28T12:14:55;23.50;99.90
65692;DHT22;52411;52.716;6.696;2023-07-28T12:17:23;23.70;99.90
65692;DHT22;52411;52.716;6.696;2023-07-28T12:20:18;23.70;99.90
65692;DHT22;52411;52.716;6.696;2023-07-28T12:22:44;23.60;99.90
65692;DHT22;52411;52.716;6.696;2023-07-28T12:25:11;23.60;99.90
65692;DHT22;52411;52.716;6.696;2023-07-28T12:27:37;23.40;99.90
65692;DHT22;52411;52.716;6.696;2023-07-28T12:30:03;23.70;99.90
65692;DHT22;52411;52.716;6.696;2023-07-28T12:32:29;24.00;99.90
65692;DHT22;52411;52.716;6.696;2023-07-28T12:34:55;24.20;99.90
65692;DHT22;52411;52.716;6.696;2023-07-28T12:37:21;24.40;99.90
65692;DHT22;52411;52.716;6.696;2023-07-28T12:39:48;24.40;99.90
65692;DHT22;52411;52.716;6.696;2023-07-28T12:42:14;24.60;99.90
65692;DHT22;52411;52.716;6.696;2023-07-28T12:44:41;24.60;99.90
65692;DHT22;52411;52.716;6.696;2023-07-28T12:47:07;24.80;99.90
65692;DHT22;52411;52.716;6.696;2023-07-28T12:49:33;24.80;99.90
65692;DHT22;52411;52.716;6.696;2023-07-28T12:52:01;25.10;99.90
65692;DHT22;52411;52.716;6.696;2023-07-28T12:54:27;25.10;99.90
65692;DHT22;52411;52.716;6.696;2023-07-28T12:56:53;25.00;99.90
65692;DHT22;52411;52.716;6.696;2023-07-28T12:59:19;24.90;99.90
65692;DHT22;52411;52.716;6.696;2023-07-28T13:01:45;25.00;99.90
65692;DHT22;52411;52.716;6.696;2023-07-28T13:04:11;25.20;99.90
65692;DHT22;52411;52.716;6.696;2023-07-28T13:06:37;25.50;99.90
65692;DHT22;52411;52.716;6.696;2023-07-28T13:09:03;25.30;99.90
65692;DHT22;52411;52.716;6.696;2023-07-28T13:11:29;25.30;99.90
65692;DHT22;52411;52.716;6.696;2023-07-28T13:13:55;25.00;99.90
65692;DHT22;52411;52.716;6.696;2023-07-28T13:16:21;24.90;99.90
65692;DHT22;52411;52.716;6.696;2023-07-28T13:18:47;25.00;99.90
65692;DHT22;52411;52.716;6.696;2023-07-28T13:21:12;25.00;99.90
65692;DHT22;52411;52.716;6.696;2023-07-28T13:23:39;25.10;99.90
65692;DHT22;52411;52.716;6.696;2023-07-28T13:26:05;25.20;99.90
65692;DHT22;52411;52.716;6.696;2023-07-28T13:28:31;25.20;99.90
65692;DHT22;52411;52.716;6.696;2023-07-28T13:30:56;25.30;99.90
65692;DHT22;52411;52.716;6.696;2023-07-28T13:33:22;25.30;99.90
65692;DHT22;52411;52.716;6.696;2023-07-28T13:35:48;25.20;99.90
65692;DHT22;52411;52.716;6.696;2023-07-28T13:38:14;25.30;99.90
65692;DHT22;52411;52.716;6.696;2023-07-28T13:40:39;25.30;99.90
65692;DHT22;52411;52.716;6.696;2023-07-28T13:43:05;25.40;99.90
65692;DHT22;52411;52.716;6.696;2023-07-28T13:45:31;25.60;99.90
65692;DHT22;52411;52.716;6.696;2023-07-28T13:47:56;25.70;99.90
65692;DHT22;52411;52.716;6.696;2023-07-28T13:50:22;25.90;99.90
65692;DHT22;52411;52.716;6.696;2023-07-28T13:52:48;26.10;99.90
65692;DHT22;52411;52.716;6.696;2023-07-28T13:55:14;26.50;99.90
65692;DHT22;52411;52.716;6.696;2023-07-28T13:57:40;26.10;99.90
65692;DHT22;52411;52.716;6.696;2023-07-28T14:00:06;25.70;99.90
65692;DHT22;52411;52.716;6.696;2023-07-28T14:02:38;25.50;99.90
65692;DHT22;52411;52.716;6.696;2023-07-28T14:05:04;25.80;99.90
65692;DHT22;52411;52.716;6.696;2023-07-28T14:07:31;25.90;99.90
65692;DHT22;52411;52.716;6.696;2023-07-28T14:09:57;25.90;99.90
65692;DHT22;52411;52.716;6.696;2023-07-28T14:12:22;25.80;99.90
65692;DHT22;52411;52.716;6.696;2023-07-28T14:14:48;26.00;99.90
65692;DHT22;52411;52.716;6.696;2023-07-28T14:17:15;25.90;99.90
65692;DHT22;52411;52.716;6.696;2023-07-28T14:19:41;25.70;99.90
65692;DHT22;52411;52.716;6.696;2023-07-28T14:22:07;25.80;99.90
65692;DHT22;52411;52.716;6.696;2023-07-28T14:24:33;26.20;99.90
65692;DHT22;52411;52.716;6.696;2023-07-28T14:26:58;26.40;99.90
65692;DHT22;52411;52.716;6.696;2023-07-28T14:29:24;26.60;99.90
65692;DHT22;52411;52.716;6.696;2023-07-28T14:31:50;26.40;99.90
65692;DHT22;52411;52.716;6.696;2023-07-28T14:34:15;26.30;99.90
65692;DHT22;52411;52.716;6.696;2023-07-28T14:36:41;26.20;99.90
65692;DHT22;52411;52.716;6.696;2023-07-28T14:39:07;26.00;99.90
65692;DHT22;52411;52.716;6.696;2023-07-28T14:41:33;25.70;99.90
65692;DHT22;52411;52.716;6.696;2023-07-28T14:43:58;25.40;99.90
65692;DHT22;52411;52.716;6.696;2023-07-28T14:46:24;25.10;99.90
65692;DHT22;52411;52.716;6.696;2023-07-28T14:48:53;24.90;99.90
65692;DHT22;52411;52.716;6.696;2023-07-28T14:51:19;24.90;99.90
65692;DHT22;52411;52.716;6.696;2023-07-28T14:53:45;25.00;99.90
65692;DHT22;52411;52.716;6.696;2023-07-28T14:56:13;25.00;99.90
65692;DHT22;52411;52.716;6.696;2023-07-28T14:58:39;24.90;99.90
65692;DHT22;52411;52.716;6.696;2023-07-28T15:01:10;24.80;99.90
65692;DHT22;52411;52.716;6.696;2023-07-28T15:03:36;24.70;99.90
65692;DHT22;52411;52.716;6.696;2023-07-28T15:06:02;24.70;99.90
65692;DHT22;52411;52.716;6.696;2023-07-28T15:08:28;24.80;99.90
65692;DHT22;52411;52.716;6.696;2023-07-28T15:10:55;24.70;99.90
65692;DHT22;52411;52.716;6.696;2023-07-28T15:13:20;24.70;99.90
65692;DHT22;52411;52.716;6.696;2023-07-28T15:15:46;24.70;99.90
65692;DHT22;52411;52.716;6.696;2023-07-28T15:18:12;24.60;99.90
65692;DHT22;52411;52.716;6.696;2023-07-28T15:20:40;24.50;99.90
65692;DHT22;52411;52.716;6.696;2023-07-28T15:23:06;24.50;99.90
65692;DHT22;52411;52.716;6.696;2023-07-28T15:25:31;24.50;99.90
65692;DHT22;52411;52.716;6.696;2023-07-28T15:27:57;24.60;99.90
65692;DHT22;52411;52.716;6.696;2023-07-28T15:30:23;25.00;99.90
65692;DHT22;52411;52.716;6.696;2023-07-28T15:32:48;25.50;99.90